Time;durP1;ratioP1;P1;durP2;ratioP2;P2;SDS_P1;SDS_P2;PMS_P1;PMS_P2;Temp;Humidity;BMP_temperature;BMP_pressure;BME280_temperature;BME280_humidity;BME280_pressure;Samples;Min_cycle;Max_cycle;Signal;HPM_P1;HPM_P2
2022/09/25 00:00:39;;;;;;;;;;;13.40;57.90;;;;;;5021687;28;92238;-40
2022/09/25 00:03:05;;;;;;;;;;;13.40;57.90;;;;;;5021448;28;92977;-40
2022/09/25 00:05:30;;;;;;;;;;;13.40;58.00;;;;;;5021811;28;92119;-40
2022/09/25 00:07:56;;;;;;;;;;;13.30;58.00;;;;;;5024782;28;92395;-40
2022/09/25 00:10:28;;;;;;;;;;;13.40;58.00;;;;;;5021157;28;92125;-39
2022/09/25 00:12:54;;;;;;;;;;;13.30;58.00;;;;;;5021767;28;91880;-40
2022/09/25 00:15:19;;;;;;;;;;;13.30;58.00;;;;;;5020309;28;94316;-40
2022/09/25 00:17:45;;;;;;;;;;;13.30;57.90;;;;;;5021599;28;92099;-39
2022/09/25 00:20:10;;;;;;;;;;;13.30;58.00;;;;;;5021641;28;92397;-39
2022/09/25 00:22:36;;;;;;;;;;;13.30;58.00;;;;;;5021112;28;93257;-39
2022/09/25 00:25:02;;;;;;;;;;;13.30;58.00;;;;;;5021579;28;92194;-40
2022/09/25 00:27:28;;;;;;;;;;;13.30;58.00;;;;;;5021012;28;92518;-40
2022/09/25 00:29:53;;;;;;;;;;;13.30;58.00;;;;;;5023731;28;93231;-40
2022/09/25 00:32:19;;;;;;;;;;;13.20;57.90;;;;;;5021857;28;92432;-39
2022/09/25 00:34:44;;;;;;;;;;;13.20;58.00;;;;;;5020683;28;93015;-40
2022/09/25 00:37:10;;;;;;;;;;;13.20;58.00;;;;;;5021353;28;92278;-40
2022/09/25 00:39:35;;;;;;;;;;;13.20;58.00;;;;;;5020628;28;93507;-40
2022/09/25 00:42:01;;;;;;;;;;;13.20;58.10;;;;;;5020360;28;93553;-39
2022/09/25 00:44:55;;;;;;;;;;;13.10;58.00;;;;;;5020958;28;92193;-39
2022/09/25 00:47:27;;;;;;;;;;;13.10;58.00;;;;;;5021102;28;92370;-40
2022/09/25 00:49:53;;;;;;;;;;;13.10;58.00;;;;;;5020461;28;93090;-40
2022/09/25 00:52:19;;;;;;;;;;;13.10;58.00;;;;;;5024017;28;92194;-40
2022/09/25 00:54:49;;;;;;;;;;;13.10;58.10;;;;;;5020299;28;93270;-40
2022/09/25 00:57:18;;;;;;;;;;;13.10;57.90;;;;;;5021300;28;91359;-40
2022/09/25 00:59:46;;;;;;;;;;;13.10;58.10;;;;;;5020825;28;92059;-40
2022/09/25 01:02:26;;;;;;;;;;;13.00;58.10;;;;;;5020166;28;93222;-40
2022/09/25 01:04:54;;;;;;;;;;;13.10;58.00;;;;;;5019126;28;93066;-40
2022/09/25 01:07:19;;;;;;;;;;;13.00;57.90;;;;;;5020583;28;93541;-39
2022/09/25 01:09:45;;;;;;;;;;;13.00;58.00;;;;;;5019679;28;93153;-39
2022/09/25 01:12:10;;;;;;;;;;;13.00;58.00;;;;;;5020620;28;92396;-40
2022/09/25 01:14:37;;;;;;;;;;;13.00;58.00;;;;;;5023158;28;92299;-40
2022/09/25 01:17:06;;;;;;;;;;;13.00;58.10;;;;;;5020667;28;92110;-40
2022/09/25 01:19:40;;;;;;;;;;;13.00;58.00;;;;;;5020503;28;92466;-40
2022/09/25 01:22:22;;;;;;;;;;;13.00;58.00;;;;;;5020468;28;92457;-39
2022/09/25 01:25:16;;;;;;;;;;;12.90;58.70;;;;;;5020554;28;91873;-40
2022/09/25 01:27:57;;;;;;;;;;;12.90;58.10;;;;;;4982665;28;92441;-40
2022/09/25 01:30:23;;;;;;;;;;;12.90;58.20;;;;;;5019140;28;94204;-39
2022/09/25 01:32:56;;;;;;;;;;;12.90;58.20;;;;;;5020500;28;92132;-40
2022/09/25 01:35:38;;;;;;;;;;;12.90;58.20;;;;;;5020212;28;92472;-39
2022/09/25 01:38:14;;;;;;;;;;;12.90;58.20;;;;;;5022793;28;92654;-40
2022/09/25 01:40:41;;;;;;;;;;;12.80;58.20;;;;;;5020040;28;92410;-40
2022/09/25 01:43:09;;;;;;;;;;;12.80;58.10;;;;;;5019675;28;92952;-39
2022/09/25 01:45:41;;;;;;;;;;;12.80;58.10;;;;;;5019157;28;92075;-40
2022/09/25 01:48:08;;;;;;;;;;;12.80;58.10;;;;;;5020868;28;92388;-39
2022/09/25 01:50:38;;;;;;;;;;;12.80;58.20;;;;;;5019485;28;93830;-40
2022/09/25 01:53:06;;;;;;;;;;;12.70;58.20;;;;;;5019353;28;92122;-40
2022/09/25 01:55:38;;;;;;;;;;;12.80;58.20;;;;;;5019292;28;94015;-39
2022/09/25 01:58:16;;;;;;;;;;;12.80;58.10;;;;;;5019452;28;92291;-40
2022/09/25 02:00:44;;;;;;;;;;;12.70;58.20;;;;;;5022879;28;92111;-39
2022/09/25 02:03:17;;;;;;;;;;;12.70;58.20;;;;;;5019251;28;93237;-40
2022/09/25 02:05:42;;;;;;;;;;;12.70;58.10;;;;;;5019671;28;92174;-39
2022/09/25 02:08:12;;;;;;;;;;;12.70;58.10;;;;;;5019754;28;91944;-39
2022/09/25 02:10:42;;;;;;;;;;;12.70;58.10;;;;;;5019350;28;92885;-39
2022/09/25 02:13:11;;;;;;;;;;;12.70;58.20;;;;;;5020332;28;92595;-39
2022/09/25 02:15:39;;;;;;;;;;;12.70;58.20;;;;;;5019316;28;92084;-39
2022/09/25 02:21:05;;;;;;;;;;;12.70;58.10;;;;;;5022191;28;92887;-39
2022/09/25 02:23:49;;;;;;;;;;;12.70;58.10;;;;;;5019301;28;93219;-39
2022/09/25 02:26:19;;;;;;;;;;;12.70;58.00;;;;;;5019691;28;92032;-39
2022/09/25 02:28:44;;;;;;;;;;;12.70;58.00;;;;;;5019180;28;92119;-40
2022/09/25 02:31:11;;;;;;;;;;;12.60;58.00;;;;;;5018856;28;93246;-39
2022/09/25 02:33:37;;;;;;;;;;;12.60;58.00;;;;;;5019122;28;92037;-39
2022/09/25 02:36:03;;;;;;;;;;;12.70;58.00;;;;;;5019370;28;92446;-40
2022/09/25 02:38:31;;;;;;;;;;;12.60;57.90;;;;;;5019494;28;92273;-40
2022/09/25 02:41:01;;;;;;;;;;;12.60;58.00;;;;;;5019169;28;92190;-40
2022/09/25 02:43:45;;;;;;;;;;;12.60;57.90;;;;;;5021700;28;92387;-39
2022/09/25 02:46:29;;;;;;;;;;;12.70;57.90;;;;;;5018396;28;93071;-39
2022/09/25 02:49:18;;;;;;;;;;;12.60;57.90;;;;;;5019289;28;93442;-39
2022/09/25 02:51:52;;;;;;;;;;;12.60;57.90;;;;;;5012088;28;93207;-40
2022/09/25 02:54:20;;;;;;;;;;;12.60;57.90;;;;;;5019273;28;92263;-39
2022/09/25 02:56:55;;;;;;;;;;;12.60;57.90;;;;;;5019443;28;92569;-39
2022/09/25 02:59:29;;;;;;;;;;;12.60;57.90;;;;;;5018437;28;93269;-40
2022/09/25 03:01:55;;;;;;;;;;;12.60;57.90;;;;;;5018910;28;92136;-39
2022/09/25 03:04:22;;;;;;;;;;;12.60;57.90;;;;;;5019584;28;92295;-40
2022/09/25 03:06:48;;;;;;;;;;;12.60;57.90;;;;;;5021596;28;93012;-39
2022/09/25 03:09:16;;;;;;;;;;;12.60;57.90;;;;;;5018651;28;92326;-39
2022/09/25 03:11:42;;;;;;;;;;;12.60;57.80;;;;;;5017606;28;93997;-40
2022/09/25 03:14:08;;;;;;;;;;;12.60;57.80;;;;;;5018952;28;92110;-39
2022/09/25 03:16:41;;;;;;;;;;;12.60;57.80;;;;;;5019191;28;92044;-39
2022/09/25 03:19:07;;;;;;;;;;;12.60;57.80;;;;;;5018096;28;93033;-39
2022/09/25 03:21:32;;;;;;;;;;;12.60;57.80;;;;;;5019024;28;91866;-39
2022/09/25 03:23:58;;;;;;;;;;;12.60;57.80;;;;;;5019053;28;91950;-39
2022/09/25 03:26:24;;;;;;;;;;;12.50;57.80;;;;;;5018746;28;92347;-39
2022/09/25 03:28:50;;;;;;;;;;;12.50;57.80;;;;;;5025911;28;91267;-39
2022/09/25 03:31:16;;;;;;;;;;;12.50;57.80;;;;;;5021592;28;93024;-39
2022/09/25 03:33:41;;;;;;;;;;;12.50;57.80;;;;;;5022209;28;92128;-39
2022/09/25 03:36:11;;;;;;;;;;;12.50;57.80;;;;;;5021463;28;92962;-39
2022/09/25 03:38:41;;;;;;;;;;;12.50;57.70;;;;;;5021601;28;93149;-39
2022/09/25 03:41:08;;;;;;;;;;;12.50;57.80;;;;;;5022223;28;92149;-39
2022/09/25 03:43:35;;;;;;;;;;;12.40;57.90;;;;;;5021993;28;92405;-39
2022/09/25 03:46:01;;;;;;;;;;;12.40;57.80;;;;;;5020662;28;93093;-39
2022/09/25 03:48:27;;;;;;;;;;;12.40;57.90;;;;;;5022029;28;92158;-39
2022/09/25 03:50:54;;;;;;;;;;;12.40;57.80;;;;;;5024763;28;92437;-39
2022/09/25 03:53:19;;;;;;;;;;;12.40;57.90;;;;;;5022426;28;91417;-40
2022/09/25 03:55:47;;;;;;;;;;;12.40;57.80;;;;;;5021879;28;91982;-40
2022/09/25 03:58:14;;;;;;;;;;;12.40;57.80;;;;;;5021340;28;93138;-39
2022/09/25 04:00:40;;;;;;;;;;;12.40;57.70;;;;;;5020770;28;93183;-39
2022/09/25 04:03:05;;;;;;;;;;;12.40;57.80;;;;;;5021746;28;93866;-39
2022/09/25 04:05:31;;;;;;;;;;;12.40;57.90;;;;;;5021154;28;93147;-39
2022/09/25 04:07:56;;;;;;;;;;;12.40;57.80;;;;;;5021604;28;92044;-39
2022/09/25 04:10:22;;;;;;;;;;;12.40;57.80;;;;;;5021672;28;92781;-39
2022/09/25 04:12:54;;;;;;;;;;;12.30;57.80;;;;;;5024149;28;93885;-39
2022/09/25 04:15:23;;;;;;;;;;;12.30;57.90;;;;;;5021204;28;93554;-39
2022/09/25 04:17:48;;;;;;;;;;;12.30;57.90;;;;;;5020010;28;95487;-39
2022/09/25 04:20:14;;;;;;;;;;;12.30;57.90;;;;;;5021405;28;92030;-39
2022/09/25 04:22:39;;;;;;;;;;;12.30;57.80;;;;;;5021657;28;92109;-39
2022/09/25 04:25:06;;;;;;;;;;;12.30;57.80;;;;;;5020091;28;93963;-39
2022/09/25 04:27:32;;;;;;;;;;;12.30;57.80;;;;;;5021371;28;92023;-39
2022/09/25 04:29:57;;;;;;;;;;;12.20;57.80;;;;;;5021023;28;92606;-39
2022/09/25 04:35:07;;;;;;;;;;;12.30;57.70;;;;;;5021286;28;92011;-39
2022/09/25 04:37:32;;;;;;;;;;;12.20;57.70;;;;;;5019994;28;93015;-39
2022/09/25 04:39:58;;;;;;;;;;;12.20;57.90;;;;;;5020653;28;92156;-39
2022/09/25 04:42:24;;;;;;;;;;;12.20;57.80;;;;;;5021255;28;92443;-39
2022/09/25 04:44:51;;;;;;;;;;;12.20;57.80;;;;;;5020479;28;93171;-39
2022/09/25 04:47:16;;;;;;;;;;;12.20;57.80;;;;;;5020998;28;92225;-39
2022/09/25 04:49:42;;;;;;;;;;;12.20;57.80;;;;;;5020505;28;92956;-39
2022/09/25 04:52:07;;;;;;;;;;;12.20;57.80;;;;;;5020470;28;93132;-39
2022/09/25 04:54:33;;;;;;;;;;;12.10;57.70;;;;;;5024049;28;92135;-39
2022/09/25 04:56:58;;;;;;;;;;;12.10;57.90;;;;;;5020212;28;93324;-40
2022/09/25 04:59:24;;;;;;;;;;;12.10;57.70;;;;;;5020817;28;92158;-39
2022/09/25 05:01:49;;;;;;;;;;;12.10;57.80;;;;;;5021035;28;92105;-39
2022/09/25 05:04:15;;;;;;;;;;;12.10;57.70;;;;;;5020369;28;93093;-39
2022/09/25 05:06:40;;;;;;;;;;;12.10;57.70;;;;;;5021190;28;91381;-39
2022/09/25 05:09:06;;;;;;;;;;;12.10;57.80;;;;;;5020192;28;92117;-39
2022/09/25 05:11:31;;;;;;;;;;;12.10;57.80;;;;;;5020050;28;93289;-39
2022/09/25 05:13:57;;;;;;;;;;;12.10;57.80;;;;;;5019839;28;93212;-39
2022/09/25 05:16:22;;;;;;;;;;;12.10;57.80;;;;;;5023237;28;93363;-39
2022/09/25 05:18:48;;;;;;;;;;;12.10;57.80;;;;;;5020650;28;92592;-39
2022/09/25 05:21:14;;;;;;;;;;;12.10;57.80;;;;;;5020589;28;92426;-39
2022/09/25 05:23:39;;;;;;;;;;;12.10;57.90;;;;;;5019895;28;93237;-39
2022/09/25 05:26:05;;;;;;;;;;;12.10;57.80;;;;;;5020420;28;93855;-39
2022/09/25 05:28:30;;;;;;;;;;;12.10;57.70;;;;;;5020532;28;92497;-39
2022/09/25 05:31:02;;;;;;;;;;;12.00;57.80;;;;;;5020287;28;92543;-39
2022/09/25 05:33:29;;;;;;;;;;;12.10;57.80;;;;;;5020531;28;92107;-39
2022/09/25 05:35:58;;;;;;;;;;;12.00;57.80;;;;;;5020405;28;92384;-39
2022/09/25 05:38:24;;;;;;;;;;;12.10;57.80;;;;;;5022047;28;94069;-39
2022/09/25 05:40:50;;;;;;;;;;;12.00;57.80;;;;;;5020086;28;93337;-39
2022/09/25 05:43:16;;;;;;;;;;;12.00;57.90;;;;;;5019627;28;93100;-39
2022/09/25 05:45:41;;;;;;;;;;;12.00;58.00;;;;;;5019904;28;92121;-39
2022/09/25 05:48:07;;;;;;;;;;;12.00;57.90;;;;;;5019962;28;92451;-39
2022/09/25 05:50:33;;;;;;;;;;;12.00;57.80;;;;;;5019008;28;93182;-39
2022/09/25 05:53:00;;;;;;;;;;;12.00;57.80;;;;;;5020107;28;92159;-40
2022/09/25 05:55:25;;;;;;;;;;;12.00;57.80;;;;;;5020233;28;92375;-39
2022/09/25 05:57:51;;;;;;;;;;;12.00;57.80;;;;;;5019372;28;93490;-39
2022/09/25 06:00:17;;;;;;;;;;;12.00;58.00;;;;;;5023216;28;92486;-39
2022/09/25 06:02:42;;;;;;;;;;;12.00;57.90;;;;;;5018566;28;93456;-39
2022/09/25 06:05:08;;;;;;;;;;;12.00;57.90;;;;;;5019859;28;92145;-39
2022/09/25 06:07:34;;;;;;;;;;;12.00;58.00;;;;;;5019974;28;93311;-39
2022/09/25 06:09:59;;;;;;;;;;;11.90;58.10;;;;;;5019078;28;93220;-39
2022/09/25 06:12:27;;;;;;;;;;;11.90;58.10;;;;;;5019748;28;92204;-40
2022/09/25 06:14:53;;;;;;;;;;;11.90;58.20;;;;;;5019724;28;92494;-39
2022/09/25 06:17:19;;;;;;;;;;;11.90;58.20;;;;;;5019211;28;93055;-39
2022/09/25 06:19:44;;;;;;;;;;;11.90;58.10;;;;;;5020073;28;91421;-39
2022/09/25 06:22:10;;;;;;;;;;;11.90;58.10;;;;;;5022226;28;92032;-40
2022/09/25 06:24:35;;;;;;;;;;;11.90;58.10;;;;;;5019566;28;92147;-40
2022/09/25 06:27:01;;;;;;;;;;;11.90;58.00;;;;;;5018852;28;92998;-39
2022/09/25 06:29:26;;;;;;;;;;;11.90;58.20;;;;;;5018960;28;93041;-39
2022/09/25 06:31:52;;;;;;;;;;;12.00;58.70;;;;;;5019497;28;92071;-40
2022/09/25 06:34:18;;;;;;;;;;;11.90;58.00;;;;;;5019619;28;92401;-40
2022/09/25 06:36:43;;;;;;;;;;;11.90;58.10;;;;;;5018901;28;93089;-39
2022/09/25 06:39:09;;;;;;;;;;;11.90;58.10;;;;;;5019505;28;92267;-39
2022/09/25 06:41:35;;;;;;;;;;;11.90;58.20;;;;;;5021899;28;92374;-40
2022/09/25 06:44:01;;;;;;;;;;;11.90;58.30;;;;;;5019906;28;91397;-39
2022/09/25 06:46:26;;;;;;;;;;;11.80;58.30;;;;;;5019078;28;92184;-39
2022/09/25 06:48:53;;;;;;;;;;;11.90;58.30;;;;;;5018697;28;93073;-40
2022/09/25 06:51:19;;;;;;;;;;;11.90;58.40;;;;;;5018647;28;93190;-39
2022/09/25 06:53:44;;;;;;;;;;;11.80;58.50;;;;;;5019340;28;93318;-40
2022/09/25 06:56:10;;;;;;;;;;;11.80;58.40;;;;;;5018481;28;93078;-39
2022/09/25 06:58:36;;;;;;;;;;;11.80;58.50;;;;;;5019406;28;92428;-39
2022/09/25 07:01:01;;;;;;;;;;;11.90;58.50;;;;;;5019176;28;92589;-39
2022/09/25 07:03:46;;;;;;;;;;;11.80;58.40;;;;;;5025172;28;93090;-40
2022/09/25 07:06:16;;;;;;;;;;;11.80;58.70;;;;;;5022612;28;92578;-39
2022/09/25 07:08:46;;;;;;;;;;;11.80;58.80;;;;;;5021885;28;92246;-39
2022/09/25 07:11:22;;;;;;;;;;;11.80;58.70;;;;;;5022642;28;92052;-40
2022/09/25 07:13:53;;;;;;;;;;;11.90;58.60;;;;;;5022899;28;92393;-39
2022/09/25 07:16:20;;;;;;;;;;;11.80;58.80;;;;;;5021367;28;94001;-40
2022/09/25 07:18:46;;;;;;;;;;;11.80;58.70;;;;;;5022118;28;92168;-39
2022/09/25 07:21:11;;;;;;;;;;;11.80;58.70;;;;;;5022082;28;92372;-40
2022/09/25 07:23:37;;;;;;;;;;;11.80;58.80;;;;;;5022006;28;92354;-40
2022/09/25 07:26:04;;;;;;;;;;;11.80;58.90;;;;;;5025455;28;92180;-40
2022/09/25 07:28:30;;;;;;;;;;;11.80;59.20;;;;;;5021653;28;93080;-40
2022/09/25 07:30:55;;;;;;;;;;;11.80;59.10;;;;;;5022218;28;92001;-40
2022/09/25 07:33:23;;;;;;;;;;;11.80;59.10;;;;;;5022673;28;92368;-40
2022/09/25 07:35:50;;;;;;;;;;;11.80;59.20;;;;;;5021510;28;92885;-39
2022/09/25 07:38:15;;;;;;;;;;;11.70;59.40;;;;;;5022047;28;92121;-39
2022/09/25 07:40:41;;;;;;;;;;;11.70;59.50;;;;;;5021330;28;93075;-39
2022/09/25 07:43:06;;;;;;;;;;;11.80;59.50;;;;;;5021633;28;93269;-40
2022/09/25 07:45:32;;;;;;;;;;;11.70;59.70;;;;;;5021716;28;92204;-39
2022/09/25 07:47:59;;;;;;;;;;;11.70;59.60;;;;;;5024606;28;93848;-39
2022/09/25 07:50:25;;;;;;;;;;;11.70;59.60;;;;;;5022102;28;92453;-40
2022/09/25 07:52:51;;;;;;;;;;;11.80;59.80;;;;;;5021860;28;92573;-40
2022/09/25 07:55:17;;;;;;;;;;;11.70;59.90;;;;;;5021301;28;93115;-40
2022/09/25 07:57:42;;;;;;;;;;;11.70;60.00;;;;;;5022420;28;91385;-40
2022/09/25 08:00:08;;;;;;;;;;;11.80;60.00;;;;;;5021887;28;92192;-40
2022/09/25 08:02:34;;;;;;;;;;;11.80;60.00;;;;;;5021222;28;92708;-40
2022/09/25 08:05:00;;;;;;;;;;;11.70;60.00;;;;;;5021214;28;93051;-40
2022/09/25 08:07:28;;;;;;;;;;;11.80;60.00;;;;;;5021520;28;93368;-40
2022/09/25 08:09:53;;;;;;;;;;;11.80;60.30;;;;;;5023799;28;92644;-40
2022/09/25 08:12:22;;;;;;;;;;;11.70;60.20;;;;;;5021406;28;92453;-40
2022/09/25 08:14:47;;;;;;;;;;;11.70;60.20;;;;;;5020967;28;93035;-40
2022/09/25 08:17:13;;;;;;;;;;;11.80;60.10;;;;;;5021642;28;92170;-40
2022/09/25 08:19:38;;;;;;;;;;;11.80;60.00;;;;;;5021627;28;92160;-40
2022/09/25 08:22:04;;;;;;;;;;;11.80;59.90;;;;;;5021280;28;92616;-39
2022/09/25 08:24:29;;;;;;;;;;;11.80;59.90;;;;;;5021624;28;92180;-39
2022/09/25 08:26:55;;;;;;;;;;;11.80;59.90;;;;;;5021354;28;92491;-40
2022/09/25 08:29:20;;;;;;;;;;;11.70;60.00;;;;;;5020152;28;93950;-39
2022/09/25 08:31:46;;;;;;;;;;;11.80;60.10;;;;;;5024247;28;92034;-40
2022/09/25 08:34:13;;;;;;;;;;;11.80;60.10;;;;;;5021034;28;92164;-40
2022/09/25 08:36:39;;;;;;;;;;;11.80;60.10;;;;;;5021154;28;92189;-40
2022/09/25 08:39:04;;;;;;;;;;;11.80;60.10;;;;;;5021157;28;92392;-40
2022/09/25 08:41:43;;;;;;;;;;;11.90;60.10;;;;;;5020575;28;93094;-40
2022/09/25 08:44:17;;;;;;;;;;;11.80;60.00;;;;;;5021310;28;92109;-40
2022/09/25 08:49:38;;;;;;;;;;;11.90;60.00;;;;;;5020727;28;92370;-40
2022/09/25 08:52:06;;;;;;;;;;;11.90;60.00;;;;;;5024062;28;91973;-40
2022/09/25 08:54:33;;;;;;;;;;;11.90;59.90;;;;;;5019770;28;94056;-39
2022/09/25 08:57:00;;;;;;;;;;;11.90;59.80;;;;;;5021037;28;92139;-40
2022/09/25 08:59:27;;;;;;;;;;;12.00;59.90;;;;;;5020693;28;92372;-39
2022/09/25 09:01:58;;;;;;;;;;;12.00;59.90;;;;;;5020125;28;92872;-39
2022/09/25 09:04:40;;;;;;;;;;;12.00;59.80;;;;;;5020782;28;92049;-39
2022/09/25 09:07:07;;;;;;;;;;;12.00;59.80;;;;;;5020724;28;92745;-39
2022/09/25 09:09:39;;;;;;;;;;;12.00;59.70;;;;;;5019570;28;93072;-40
2022/09/25 09:12:07;;;;;;;;;;;12.00;59.80;;;;;;5020918;28;91376;-40
2022/09/25 09:14:37;;;;;;;;;;;12.00;59.90;;;;;;5023345;28;92444;-40
2022/09/25 09:17:06;;;;;;;;;;;12.10;59.90;;;;;;5020510;28;92111;-40
2022/09/25 09:19:32;;;;;;;;;;;12.10;59.90;;;;;;5019692;28;92966;-39
2022/09/25 09:22:10;;;;;;;;;;;12.10;59.80;;;;;;5020050;28;93032;-40
2022/09/25 09:24:48;;;;;;;;;;;12.10;59.90;;;;;;5019437;28;92389;-39
2022/09/25 09:27:16;;;;;;;;;;;12.10;60.00;;;;;;5020572;28;92321;-40
2022/09/25 09:29:57;;;;;;;;;;;12.10;59.80;;;;;;5020057;28;92508;-40
2022/09/25 09:32:41;;;;;;;;;;;12.10;59.90;;;;;;5020032;28;92114;-40
2022/09/25 09:35:25;;;;;;;;;;;12.10;59.90;;;;;;5020299;28;92029;-40
2022/09/25 09:38:03;;;;;;;;;;;12.10;59.90;;;;;;5023436;28;92069;-40
2022/09/25 09:40:48;;;;;;;;;;;12.20;60.30;;;;;;5020282;28;91991;-40
2022/09/25 09:43:37;;;;;;;;;;;12.20;60.00;;;;;;5019821;28;92909;-40
2022/09/25 09:46:02;;;;;;;;;;;12.20;60.40;;;;;;5019383;28;93031;-40
2022/09/25 09:48:38;;;;;;;;;;;12.20;60.10;;;;;;5020074;28;92955;-40
2022/09/25 09:51:10;;;;;;;;;;;12.20;60.10;;;;;;5019450;28;93084;-40
2022/09/25 09:53:58;;;;;;;;;;;12.20;60.20;;;;;;5019912;28;92092;-39
2022/09/25 09:56:25;;;;;;;;;;;12.20;60.20;;;;;;5020110;28;92627;-40
2022/09/25 09:58:51;;;;;;;;;;;12.30;60.10;;;;;;5019402;28;92897;-39
2022/09/25 10:01:19;;;;;;;;;;;12.30;60.20;;;;;;5023208;28;92137;-40
2022/09/25 10:03:46;;;;;;;;;;;12.30;60.00;;;;;;5019807;28;92545;-40
2022/09/25 10:06:13;;;;;;;;;;;12.30;60.00;;;;;;5019736;28;92117;-40
2022/09/25 10:08:40;;;;;;;;;;;12.30;60.10;;;;;;5019243;28;92181;-40
2022/09/25 10:11:19;;;;;;;;;;;12.40;60.80;;;;;;5018696;28;94047;-40
2022/09/25 10:13:45;;;;;;;;;;;12.40;60.50;;;;;;5019840;28;92074;-40
2022/09/25 10:16:13;;;;;;;;;;;12.40;60.10;;;;;;5019666;28;92348;-40
2022/09/25 10:18:41;;;;;;;;;;;12.40;60.10;;;;;;5019042;28;93213;-40
2022/09/25 10:21:07;;;;;;;;;;;12.40;60.20;;;;;;5019626;28;92158;-40
2022/09/25 10:23:38;;;;;;;;;;;12.40;60.40;;;;;;5022098;28;92229;-40
2022/09/25 10:26:21;;;;;;;;;;;12.50;60.20;;;;;;5019345;28;92112;-40
2022/09/25 10:28:47;;;;;;;;;;;12.50;60.10;;;;;;5020180;28;92455;-39
2022/09/25 10:31:14;;;;;;;;;;;12.50;60.20;;;;;;5019124;28;93463;-40
2022/09/25 10:33:39;;;;;;;;;;;12.50;60.30;;;;;;5019284;28;92087;-40
2022/09/25 10:36:05;;;;;;;;;;;12.50;60.60;;;;;;5018820;28;93134;-40
2022/09/25 10:38:31;;;;;;;;;;;12.50;60.10;;;;;;5018922;28;93101;-40
2022/09/25 10:40:58;;;;;;;;;;;12.50;60.30;;;;;;5019311;28;92086;-40
2022/09/25 10:43:23;;;;;;;;;;;12.60;60.30;;;;;;5021734;28;94320;-40
2022/09/25 10:46:05;;;;;;;;;;;12.60;60.40;;;;;;5019352;28;92473;-40
2022/09/25 10:51:22;;;;;;;;;;;12.60;60.30;;;;;;5018699;28;93010;-40
2022/09/25 10:53:49;;;;;;;;;;;12.60;60.40;;;;;;5019784;28;91376;-40
2022/09/25 10:56:17;;;;;;;;;;;12.70;60.50;;;;;;5019162;28;92064;-40
2022/09/25 10:58:53;;;;;;;;;;;12.70;60.20;;;;;;5018389;28;93194;-40
2022/09/25 11:01:20;;;;;;;;;;;12.70;60.30;;;;;;5018429;28;93093;-40
2022/09/25 11:03:47;;;;;;;;;;;12.70;60.10;;;;;;5019107;28;93512;-39
2022/09/25 11:06:13;;;;;;;;;;;12.80;60.20;;;;;;5021351;28;92969;-40
2022/09/25 11:08:40;;;;;;;;;;;12.80;60.40;;;;;;5018637;28;92549;-40
2022/09/25 11:11:08;;;;;;;;;;;12.80;60.20;;;;;;5018471;28;93032;-40
2022/09/25 11:13:48;;;;;;;;;;;12.80;60.10;;;;;;5018942;28;92125;-40
2022/09/25 11:16:14;;;;;;;;;;;12.80;60.10;;;;;;5018738;28;92691;-40
2022/09/25 11:18:39;;;;;;;;;;;12.90;60.40;;;;;;5018951;28;92543;-40
2022/09/25 11:21:15;;;;;;;;;;;12.90;60.50;;;;;;5018862;28;91995;-40
2022/09/25 11:23:44;;;;;;;;;;;12.90;60.60;;;;;;5019031;28;92338;-40
2022/09/25 11:26:10;;;;;;;;;;;13.00;60.30;;;;;;5017486;28;94109;-40
2022/09/25 11:28:48;;;;;;;;;;;13.00;60.40;;;;;;5021948;28;92127;-40
2022/09/25 11:31:25;;;;;;;;;;;13.00;60.30;;;;;;5018217;28;93410;-40
2022/09/25 11:34:10;;;;;;;;;;;13.00;60.20;;;;;;5019062;28;92159;-40
2022/09/25 11:36:38;;;;;;;;;;;13.10;61.20;;;;;;5018640;28;92246;-40
2022/09/25 11:42:02;;;;;;;;;;;13.10;60.70;;;;;;5018765;28;91995;-40
2022/09/25 11:44:31;;;;;;;;;;;13.10;60.20;;;;;;5019027;28;91566;-40
2022/09/25 11:46:58;;;;;;;;;;;13.20;60.20;;;;;;5017657;28;93718;-40
2022/09/25 11:49:34;;;;;;;;;;;13.20;60.20;;;;;;5022053;28;92106;-40
2022/09/25 11:52:12;;;;;;;;;;;13.20;60.30;;;;;;5024049;28;92989;-40
2022/09/25 11:54:41;;;;;;;;;;;13.20;60.20;;;;;;5022044;28;92163;-40
2022/09/25 11:57:10;;;;;;;;;;;13.20;60.30;;;;;;5021937;28;92205;-40
2022/09/25 11:59:51;;;;;;;;;;;13.30;60.30;;;;;;5021130;28;92973;-40
2022/09/25 12:02:29;;;;;;;;;;;13.30;60.40;;;;;;5021757;28;92138;-40
2022/09/25 12:05:05;;;;;;;;;;;13.40;60.40;;;;;;5021964;28;92451;-40
2022/09/25 12:07:39;;;;;;;;;;;13.40;60.50;;;;;;5021137;28;93077;-40
2022/09/25 12:10:07;;;;;;;;;;;13.40;60.40;;;;;;5021915;28;91336;-40
2022/09/25 12:12:40;;;;;;;;;;;13.40;60.50;;;;;;5021851;28;92163;-40
2022/09/25 12:15:14;;;;;;;;;;;13.50;60.50;;;;;;5024002;28;93019;-40
2022/09/25 12:18:02;;;;;;;;;;;13.50;60.40;;;;;;5021066;28;93049;-40
2022/09/25 12:20:28;;;;;;;;;;;13.50;60.50;;;;;;5020826;28;93010;-40
2022/09/25 12:22:54;;;;;;;;;;;13.60;60.30;;;;;;5021547;28;92097;-40
2022/09/25 12:25:23;;;;;;;;;;;13.60;60.20;;;;;;5021429;28;92392;-40
2022/09/25 12:27:48;;;;;;;;;;;13.60;60.20;;;;;;5020857;28;93182;-40
2022/09/25 12:30:17;;;;;;;;;;;13.60;60.40;;;;;;5021395;28;92107;-40
2022/09/25 12:33:01;;;;;;;;;;;13.60;60.30;;;;;;5021449;28;92548;-40
2022/09/25 12:35:33;;;;;;;;;;;13.70;60.40;;;;;;5021261;28;92249;-40
2022/09/25 12:38:04;;;;;;;;;;;13.70;60.40;;;;;;5024382;28;92163;-41
2022/09/25 12:40:29;;;;;;;;;;;13.70;60.30;;;;;;5003435;28;93019;-44
2022/09/25 12:43:03;;;;;;;;;;;14.30;59.20;;;;;;5000781;28;92924;-45
2022/09/25 12:45:35;;;;;;;;;;;14.80;58.50;;;;;;5000511;28;93250;-45
2022/09/25 12:48:03;;;;;;;;;;;15.00;57.50;;;;;;5000100;28;93154;-45
2022/09/25 12:50:32;;;;;;;;;;;15.10;57.40;;;;;;5001300;28;92381;-45
2022/09/25 12:53:01;;;;;;;;;;;15.30;56.40;;;;;;5000908;28;92151;-42
2022/09/25 12:55:39;;;;;;;;;;;15.30;56.20;;;;;;5000370;28;92690;-48
2022/09/25 12:58:17;;;;;;;;;;;15.50;55.90;;;;;;5004024;28;92097;-44
2022/09/25 13:00:44;;;;;;;;;;;15.60;56.00;;;;;;4999160;28;92286;-43
2022/09/25 13:03:14;;;;;;;;;;;15.30;56.90;;;;;;5000257;28;92116;-43
2022/09/25 13:05:44;;;;;;;;;;;15.20;57.60;;;;;;5000747;28;92148;-42
2022/09/25 13:08:18;;;;;;;;;;;15.00;58.00;;;;;;4999319;28;94138;-42
2022/09/25 13:11:00;;;;;;;;;;;14.90;58.10;;;;;;5000951;28;91963;-42
2022/09/25 13:13:28;;;;;;;;;;;14.90;58.40;;;;;;5000791;28;93588;-42
2022/09/25 13:15:57;;;;;;;;;;;14.90;58.50;;;;;;4998911;28;93177;-42
2022/09/25 13:18:24;;;;;;;;;;;14.90;58.60;;;;;;4998500;28;92482;-44
2022/09/25 13:20:54;;;;;;;;;;;14.80;58.70;;;;;;5000794;28;92576;-42
2022/09/25 13:23:20;;;;;;;;;;;14.90;58.70;;;;;;4998568;28;92233;-42
2022/09/25 13:25:47;;;;;;;;;;;14.90;58.80;;;;;;5000239;28;92974;-43
2022/09/25 13:28:18;;;;;;;;;;;15.00;56.80;;;;;;4999712;28;92997;-41
2022/09/25 13:30:56;;;;;;;;;;;15.40;57.60;;;;;;5000436;28;92225;-42
2022/09/25 13:33:22;;;;;;;;;;;15.60;58.00;;;;;;5000072;28;93010;-41
2022/09/25 13:35:47;;;;;;;;;;;15.70;56.30;;;;;;4999962;28;92436;-41
2022/09/25 13:41:12;;;;;;;;;;;15.50;56.10;;;;;;5015062;28;92189;-44
2022/09/25 13:43:38;;;;;;;;;;;15.70;56.00;;;;;;5002906;28;92934;-42
2022/09/25 13:46:24;;;;;;;;;;;15.90;55.90;;;;;;4999901;28;92876;-50
2022/09/25 13:48:56;;;;;;;;;;;16.00;56.00;;;;;;4999659;28;92930;-45
2022/09/25 13:51:22;;;;;;;;;;;16.10;56.30;;;;;;5000777;28;91661;-44
2022/09/25 13:54:04;;;;;;;;;;;16.20;56.20;;;;;;5000230;28;91925;-41
2022/09/25 13:56:33;;;;;;;;;;;16.30;55.20;;;;;;4999402;28;92986;-41
2022/09/25 13:59:01;;;;;;;;;;;16.10;56.80;;;;;;4999710;28;93180;-43
2022/09/25 14:01:34;;;;;;;;;;;16.00;55.50;;;;;;5000075;28;93323;-46
2022/09/25 14:03:59;;;;;;;;;;;16.20;55.70;;;;;;4999444;28;93034;-45
2022/09/25 14:06:31;;;;;;;;;;;16.30;55.60;;;;;;5003013;28;92130;-46
2022/09/25 14:08:58;;;;;;;;;;;16.40;56.10;;;;;;4998784;28;93000;-46
2022/09/25 14:11:26;;;;;;;;;;;16.40;55.70;;;;;;4999139;28;92129;-44
2022/09/25 14:13:55;;;;;;;;;;;16.40;55.50;;;;;;4998288;28;92511;-41
2022/09/25 14:16:27;;;;;;;;;;;16.30;56.20;;;;;;4999603;28;92309;-41
2022/09/25 14:18:53;;;;;;;;;;;16.10;56.50;;;;;;4999453;28;92114;-41
2022/09/25 14:21:20;;;;;;;;;;;16.10;56.90;;;;;;4999697;28;92371;-41
2022/09/25 14:23:50;;;;;;;;;;;16.10;56.90;;;;;;4998189;28;93824;-40
2022/09/25 14:26:28;;;;;;;;;;;16.00;57.00;;;;;;4998886;28;92135;-41
2022/09/25 14:28:55;;;;;;;;;;;16.00;57.20;;;;;;4999902;28;92565;-41
2022/09/25 14:31:36;;;;;;;;;;;15.90;57.40;;;;;;4997129;28;92338;-41
2022/09/25 14:34:27;;;;;;;;;;;15.90;57.50;;;;;;4997507;28;92514;-41
2022/09/25 14:37:03;;;;;;;;;;;15.90;57.70;;;;;;4997089;28;93409;-41
2022/09/25 14:39:56;;;;;;;;;;;15.90;57.80;;;;;;4997277;28;92146;-41
2022/09/25 14:42:31;;;;;;;;;;;15.80;57.80;;;;;;4998781;28;93048;-41
2022/09/25 14:45:13;;;;;;;;;;;15.80;57.90;;;;;;4998755;28;93440;-41